Time;durP1;ratioP1;P1;durP2;ratioP2;P2;SDS_P1;SDS_P2;PMS_P1;PMS_P2;Temp;Humidity;BMP_temperature;BMP_pressure;BME280_temperature;BME280_humidity;BME280_pressure;Samples;Min_cycle;Max_cycle;Signal;HPM_P1;HPM_P2
2022/10/24 00:01:52;;;;;;;5.35;3.15;;;;;;;;;;5021176;28;20443;-80
2022/10/24 00:04:19;;;;;;;6.70;3.97;;;;;;;;;;5018357;28;20419;-80
2022/10/24 00:06:48;;;;;;;8.75;3.30;;;;;;;;;;5020118;28;20791;-80
2022/10/24 00:09:16;;;;;;;6.93;3.25;;;;;;;;;;5021192;28;20434;-81
2022/10/24 00:11:42;;;;;;;4.97;2.97;;;;;;;;;;5022940;28;20444;-80
2022/10/24 00:14:09;;;;;;;6.00;2.90;;;;;;;;;;5020862;28;20427;-81
2022/10/24 00:16:35;;;;;;;4.50;2.80;;;;;;;;;;5021948;28;20847;-80
2022/10/24 00:19:02;;;;;;;6.47;3.30;;;;;;;;;;5021223;28;20446;-80
2022/10/24 00:21:28;;;;;;;7.03;3.08;;;;;;;;;;5023644;28;20409;-81
2022/10/24 00:23:54;;;;;;;4.45;3.40;;;;;;;;;;5022350;28;20434;-80
2022/10/24 00:26:22;;;;;;;6.30;3.13;;;;;;;;;;5021138;28;20433;-80
2022/10/24 00:28:49;;;;;;;6.70;3.50;;;;;;;;;;5018858;28;20919;-81
2022/10/24 00:31:16;;;;;;;8.23;3.22;;;;;;;;;;5018366;28;20427;-81
2022/10/24 00:33:43;;;;;;;4.78;3.20;;;;;;;;;;5023105;28;20444;-80
2022/10/24 00:36:13;;;;;;;4.75;3.20;;;;;;;;;;5021396;28;20426;-80
2022/10/24 00:38:40;;;;;;;7.05;2.97;;;;;;;;;;5021323;28;20459;-81
2022/10/24 00:41:06;;;;;;;5.68;3.33;;;;;;;;;;5019894;28;20437;-80
2022/10/24 00:43:34;;;;;;;6.88;3.13;;;;;;;;;;5021625;28;20442;-80
2022/10/24 00:46:01;;;;;;;7.55;3.92;;;;;;;;;;5020936;28;20913;-80
2022/10/24 00:48:30;;;;;;;4.65;3.90;;;;;;;;;;5020274;28;20443;-81
2022/10/24 00:50:58;;;;;;;5.90;3.25;;;;;;;;;;5020076;28;20421;-80
2022/10/24 00:53:25;;;;;;;4.10;3.55;;;;;;;;;;5021342;28;20789;-80
2022/10/24 00:55:53;;;;;;;6.55;3.15;;;;;;;;;;5020148;28;20440;-80
2022/10/24 00:58:21;;;;;;;8.43;3.78;;;;;;;;;;5019686;28;20436;-80
2022/10/24 01:00:49;;;;;;;8.65;3.40;;;;;;;;;;5020884;28;20424;-80
2022/10/24 01:03:17;;;;;;;6.97;3.20;;;;;;;;;;5023009;28;20427;-80
2022/10/24 01:05:50;;;;;;;5.72;3.38;;;;;;;;;;5020797;28;20414;-80
2022/10/24 01:08:22;;;;;;;6.18;3.35;;;;;;;;;;5020411;28;20423;-80
2022/10/24 01:10:51;;;;;;;6.70;3.63;;;;;;;;;;5019176;28;20932;-80
2022/10/24 01:13:21;;;;;;;7.82;3.30;;;;;;;;;;5022280;28;20785;-81
2022/10/24 01:15:51;;;;;;;6.13;3.33;;;;;;;;;;5021484;28;20413;-81
2022/10/24 01:18:19;;;;;;;5.93;3.40;;;;;;;;;;5017522;28;20440;-80
2022/10/24 01:20:54;;;;;;;6.53;3.30;;;;;;;;;;5018839;28;20426;-80
2022/10/24 01:23:27;;;;;;;8.18;3.38;;;;;;;;;;5020953;28;20432;-81
2022/10/24 01:26:00;;;;;;;8.10;3.30;;;;;;;;;;5019692;28;20543;-80
2022/10/24 01:28:29;;;;;;;6.60;3.45;;;;;;;;;;5019428;28;20415;-81
2022/10/24 01:31:02;;;;;;;8.50;3.40;;;;;;;;;;5019294;28;20438;-81
2022/10/24 01:33:31;;;;;;;8.15;3.50;;;;;;;;;;5019674;28;20430;-81
2022/10/24 01:36:00;;;;;;;4.05;2.95;;;;;;;;;;5020059;28;20474;-81
2022/10/24 01:38:30;;;;;;;6.10;3.30;;;;;;;;;;5018623;28;20443;-81
2022/10/24 01:40:57;;;;;;;8.53;3.50;;;;;;;;;;5021368;28;20428;-81
2022/10/24 01:43:27;;;;;;;6.15;2.90;;;;;;;;;;5024353;28;20428;-81
2022/10/24 01:45:55;;;;;;;7.35;3.33;;;;;;;;;;5019902;28;20438;-81
2022/10/24 01:48:24;;;;;;;8.27;3.30;;;;;;;;;;5020729;28;20448;-81
2022/10/24 01:50:52;;;;;;;7.78;3.30;;;;;;;;;;5018992;28;20430;-81
2022/10/24 01:53:20;;;;;;;7.95;3.10;;;;;;;;;;5018897;28;20427;-81
2022/10/24 01:55:46;;;;;;;10.30;3.83;;;;;;;;;;5022773;28;20415;-81
2022/10/24 01:58:14;;;;;;;6.80;3.20;;;;;;;;;;5025224;28;20438;-81
2022/10/24 02:00:41;;;;;;;7.38;3.58;;;;;;;;;;5026258;28;20434;-81
2022/10/24 02:03:11;;;;;;;7.85;3.97;;;;;;;;;;5023414;28;20448;-81
2022/10/24 02:05:41;;;;;;;5.18;3.00;;;;;;;;;;5023331;28;20427;-81
2022/10/24 02:08:10;;;;;;;7.53;3.72;;;;;;;;;;5024363;28;20801;-81
2022/10/24 02:10:39;;;;;;;7.03;3.50;;;;;;;;;;5021458;28;20432;-81
2022/10/24 02:13:07;;;;;;;4.73;3.50;;;;;;;;;;5025038;28;20437;-81
2022/10/24 02:15:36;;;;;;;5.47;3.10;;;;;;;;;;5026807;28;20416;-81
2022/10/24 02:18:03;;;;;;;6.93;3.38;;;;;;;;;;5020932;28;20817;-81
2022/10/24 02:20:33;;;;;;;7.00;3.30;;;;;;;;;;5024758;28;20438;-81
2022/10/24 02:23:05;;;;;;;5.65;3.03;;;;;;;;;;5023824;28;20434;-81
2022/10/24 02:25:34;;;;;;;6.30;3.00;;;;;;;;;;5023602;28;20412;-81
2022/10/24 02:28:03;;;;;;;7.40;3.30;;;;;;;;;;5021372;28;20433;-81
2022/10/24 02:30:30;;;;;;;5.97;3.17;;;;;;;;;;5022187;28;20430;-80
2022/10/24 02:32:57;;;;;;;6.15;3.13;;;;;;;;;;5024812;28;20492;-81
2022/10/24 02:35:27;;;;;;;10.40;3.40;;;;;;;;;;5024323;28;20415;-81
2022/10/24 02:37:55;;;;;;;5.53;3.30;;;;;;;;;;5024803;28;20434;-81
2022/10/24 02:40:24;;;;;;;6.82;3.65;;;;;;;;;;5024556;28;20411;-80
2022/10/24 02:42:52;;;;;;;6.75;3.55;;;;;;;;;;5026253;28;20437;-81
2022/10/24 02:45:19;;;;;;;5.97;3.47;;;;;;;;;;5021988;28;20810;-81
2022/10/24 02:47:47;;;;;;;8.82;3.53;;;;;;;;;;5023959;28;20431;-81
2022/10/24 02:50:14;;;;;;;6.32;3.15;;;;;;;;;;5024057;28;20431;-81
2022/10/24 02:52:41;;;;;;;7.40;3.50;;;;;;;;;;5025862;28;20546;-81
2022/10/24 02:55:08;;;;;;;6.45;3.20;;;;;;;;;;5024772;28;20435;-81
2022/10/24 02:57:36;;;;;;;6.55;3.22;;;;;;;;;;5023534;28;20800;-81
2022/10/24 03:00:02;;;;;;;7.85;3.40;;;;;;;;;;5024442;28;20458;-81
2022/10/24 03:02:29;;;;;;;15.43;3.50;;;;;;;;;;5022364;28;20430;-81
2022/10/24 03:04:55;;;;;;;6.63;2.80;;;;;;;;;;5021061;28;20435;-82
2022/10/24 03:07:21;;;;;;;6.80;3.10;;;;;;;;;;5024236;28;20431;-81
2022/10/24 03:09:48;;;;;;;7.25;3.50;;;;;;;;;;5023678;28;20439;-81
2022/10/24 03:12:15;;;;;;;10.02;3.78;;;;;;;;;;5020447;28;20448;-81
2022/10/24 03:14:42;;;;;;;10.98;3.67;;;;;;;;;;5020999;28;20437;-81
2022/10/24 03:17:09;;;;;;;7.50;3.13;;;;;;;;;;5022910;28;20442;-81
2022/10/24 03:19:37;;;;;;;10.98;3.45;;;;;;;;;;5022776;28;20417;-81
2022/10/24 03:22:03;;;;;;;7.10;3.20;;;;;;;;;;5024111;28;20836;-81
2022/10/24 03:24:30;;;;;;;8.68;3.53;;;;;;;;;;5019231;28;20432;-81
2022/10/24 03:26:56;;;;;;;9.80;3.63;;;;;;;;;;5022854;28;20438;-81
2022/10/24 03:29:22;;;;;;;9.32;3.78;;;;;;;;;;5024354;28;20446;-81
2022/10/24 03:31:50;;;;;;;7.43;3.63;;;;;;;;;;5019656;28;20435;-81
2022/10/24 03:34:17;;;;;;;7.78;4.15;;;;;;;;;;5019429;28;20440;-81
2022/10/24 03:36:43;;;;;;;7.57;3.55;;;;;;;;;;5021486;28;20429;-81
2022/10/24 03:39:10;;;;;;;5.97;3.38;;;;;;;;;;5022308;28;20430;-80
2022/10/24 03:41:36;;;;;;;5.90;3.70;;;;;;;;;;5022918;28;20488;-81
2022/10/24 03:44:02;;;;;;;5.82;3.53;;;;;;;;;;5022806;28;20436;-81
2022/10/24 03:46:29;;;;;;;7.25;3.78;;;;;;;;;;5019808;28;20432;-81
2022/10/24 03:48:57;;;;;;;9.43;3.63;;;;;;;;;;5023663;28;20413;-81
2022/10/24 03:51:23;;;;;;;9.88;3.88;;;;;;;;;;5023938;28;20436;-81
2022/10/24 03:53:50;;;;;;;7.45;3.47;;;;;;;;;;5023989;28;20434;-81
2022/10/24 03:56:16;;;;;;;10.55;3.85;;;;;;;;;;5020861;28;21202;-80
2022/10/24 03:58:42;;;;;;;9.60;3.83;;;;;;;;;;5022965;28;20792;-81
2022/10/24 04:01:15;;;;;;;8.05;3.60;;;;;;;;;;5022618;28;20431;-81
2022/10/24 04:03:42;;;;;;;10.80;4.10;;;;;;;;;;5021734;28;20523;-81
2022/10/24 04:06:09;;;;;;;8.67;4.27;;;;;;;;;;5021411;28;20511;-81
2022/10/24 04:08:36;;;;;;;5.28;3.60;;;;;;;;;;5020106;28;21803;-81
2022/10/24 04:11:02;;;;;;;11.10;4.07;;;;;;;;;;5024244;28;20435;-81
2022/10/24 04:13:28;;;;;;;6.05;3.75;;;;;;;;;;5023688;28;20427;-81
2022/10/24 04:15:55;;;;;;;8.20;3.40;;;;;;;;;;5022034;28;20425;-81
2022/10/24 04:18:21;;;;;;;8.47;4.40;;;;;;;;;;5022354;28;20432;-81
2022/10/24 04:20:47;;;;;;;10.18;4.85;;;;;;;;;;5020616;28;20917;-81
2022/10/24 04:23:15;;;;;;;11.27;3.70;;;;;;;;;;5023460;28;20457;-81
2022/10/24 04:25:42;;;;;;;7.50;4.40;;;;;;;;;;5018821;28;20440;-81
2022/10/24 04:28:08;;;;;;;8.77;3.83;;;;;;;;;;5019366;28;20517;-80
2022/10/24 04:30:34;;;;;;;12.85;4.05;;;;;;;;;;5021633;28;20437;-81
2022/10/24 04:33:01;;;;;;;4.82;3.95;;;;;;;;;;5023227;28;20460;-80
2022/10/24 04:35:27;;;;;;;8.53;4.07;;;;;;;;;;5023515;28;20421;-81
2022/10/24 04:37:54;;;;;;;9.15;4.32;;;;;;;;;;5022085;28;20479;-81
2022/10/24 04:40:22;;;;;;;10.07;4.40;;;;;;;;;;5021108;28;20904;-81
2022/10/24 04:42:48;;;;;;;8.90;4.10;;;;;;;;;;5021180;28;20431;-81
2022/10/24 04:45:14;;;;;;;9.38;4.35;;;;;;;;;;5021410;28;20434;-80
2022/10/24 04:47:41;;;;;;;10.65;4.10;;;;;;;;;;5019863;28;20493;-81
2022/10/24 04:50:08;;;;;;;7.40;4.20;;;;;;;;;;5020269;28;20424;-81
2022/10/24 04:52:34;;;;;;;8.93;4.75;;;;;;;;;;5022812;28;20442;-80
2022/10/24 04:55:00;;;;;;;7.55;4.30;;;;;;;;;;5025979;28;20460;-81
2022/10/24 04:57:28;;;;;;;8.10;4.28;;;;;;;;;;5022137;28;20912;-81
2022/10/24 04:59:55;;;;;;;10.43;4.80;;;;;;;;;;5019925;28;20431;-81
2022/10/24 05:02:21;;;;;;;8.45;4.68;;;;;;;;;;5020686;28;20929;-81
2022/10/24 05:04:47;;;;;;;9.88;4.47;;;;;;;;;;5022420;28;20850;-80
2022/10/24 05:07:14;;;;;;;9.45;4.60;;;;;;;;;;5020377;28;20439;-80
2022/10/24 05:09:40;;;;;;;9.43;4.60;;;;;;;;;;5021195;28;20412;-80
2022/10/24 05:12:07;;;;;;;8.68;3.80;;;;;;;;;;5020736;28;20850;-81
2022/10/24 05:14:35;;;;;;;11.32;3.90;;;;;;;;;;5021408;28;20431;-81
2022/10/24 05:17:01;;;;;;;9.10;3.80;;;;;;;;;;5017737;28;20454;-80
2022/10/24 05:19:29;;;;;;;9.00;4.00;;;;;;;;;;5021588;28;20442;-80
2022/10/24 05:21:55;;;;;;;8.52;4.20;;;;;;;;;;5021280;28;20425;-80
2022/10/24 05:24:21;;;;;;;6.78;3.72;;;;;;;;;;5022179;28;20438;-80
2022/10/24 05:26:48;;;;;;;9.27;4.80;;;;;;;;;;5017652;28;20431;-80
2022/10/24 05:29:14;;;;;;;6.20;4.43;;;;;;;;;;5020646;28;20508;-81
2022/10/24 05:31:42;;;;;;;7.25;3.97;;;;;;;;;;5020833;28;20449;-82
2022/10/24 05:34:08;;;;;;;9.30;5.13;;;;;;;;;;5023978;28;20432;-81
2022/10/24 05:36:34;;;;;;;6.90;4.45;;;;;;;;;;5020289;28;20606;-82
2022/10/24 05:39:02;;;;;;;7.68;4.15;;;;;;;;;;5020293;28;20434;-82
2022/10/24 05:41:29;;;;;;;15.20;5.10;;;;;;;;;;5019834;28;20430;-81
2022/10/24 05:43:55;;;;;;;9.05;4.60;;;;;;;;;;5020692;28;20438;-81
2022/10/24 05:46:22;;;;;;;10.43;4.10;;;;;;;;;;5019796;28;21008;-81
2022/10/24 05:48:49;;;;;;;8.63;4.35;;;;;;;;;;5023513;28;20427;-81
2022/10/24 05:51:16;;;;;;;9.00;4.22;;;;;;;;;;5020264;28;20419;-81
2022/10/24 05:53:42;;;;;;;8.00;3.90;;;;;;;;;;5019602;28;20930;-81
2022/10/24 05:56:10;;;;;;;9.63;4.60;;;;;;;;;;5021480;28;20426;-81
2022/10/24 05:58:36;;;;;;;7.63;3.92;;;;;;;;;;5019919;28;20439;-82
2022/10/24 06:01:03;;;;;;;9.45;3.95;;;;;;;;;;5020438;28;20419;-81
2022/10/24 06:03:29;;;;;;;10.90;4.47;;;;;;;;;;5020889;28;20440;-81
2022/10/24 06:05:57;;;;;;;10.48;4.10;;;;;;;;;;5019052;28;20429;-81
2022/10/24 06:08:23;;;;;;;9.02;4.47;;;;;;;;;;5022502;28;20433;-81
2022/10/24 06:10:50;;;;;;;10.63;4.10;;;;;;;;;;5019931;28;20417;-81
2022/10/24 06:13:17;;;;;;;7.07;4.03;;;;;;;;;;5021949;28;20418;-81
2022/10/24 06:15:44;;;;;;;9.27;4.50;;;;;;;;;;5023404;28;20420;-81
2022/10/24 06:18:10;;;;;;;8.05;4.50;;;;;;;;;;5019040;28;20411;-81
2022/10/24 06:20:37;;;;;;;8.60;4.30;;;;;;;;;;5021406;28;20424;-82
2022/10/24 06:23:05;;;;;;;10.27;4.50;;;;;;;;;;5003522;28;20419;-81
2022/10/24 06:25:31;;;;;;;12.55;4.45;;;;;;;;;;5019113;28;20436;-81
2022/10/24 06:27:57;;;;;;;10.55;4.18;;;;;;;;;;5022322;28;20780;-81
2022/10/24 06:30:24;;;;;;;8.87;3.80;;;;;;;;;;5021635;28;20419;-81
2022/10/24 06:32:50;;;;;;;8.30;3.30;;;;;;;;;;5020435;28;20423;-81
2022/10/24 06:35:18;;;;;;;8.73;3.73;;;;;;;;;;5019024;28;20419;-82
2022/10/24 06:37:44;;;;;;;9.05;3.80;;;;;;;;;;5020380;28;20443;-81
2022/10/24 06:40:12;;;;;;;12.55;4.13;;;;;;;;;;5023992;28;20418;-81
2022/10/24 06:42:38;;;;;;;13.98;4.00;;;;;;;;;;5021788;28;20423;-81
2022/10/24 06:45:05;;;;;;;5.68;3.53;;;;;;;;;;5024731;28;20428;-81
2022/10/24 06:47:32;;;;;;;9.38;3.60;;;;;;;;;;5025878;28;20431;-81
2022/10/24 06:49:58;;;;;;;7.95;3.75;;;;;;;;;;5026869;28;20439;-81
2022/10/24 06:52:24;;;;;;;11.73;3.97;;;;;;;;;;5022389;28;20931;-81
2022/10/24 06:54:51;;;;;;;9.18;3.80;;;;;;;;;;5021082;28;20413;-81
2022/10/24 06:57:19;;;;;;;7.20;4.00;;;;;;;;;;5026732;28;20420;-81
2022/10/24 06:59:45;;;;;;;6.55;4.40;;;;;;;;;;5021767;28;20920;-81
2022/10/24 07:02:12;;;;;;;8.10;4.40;;;;;;;;;;5025113;28;20436;-82
2022/10/24 07:04:39;;;;;;;9.50;3.70;;;;;;;;;;5026273;28;20430;-81
2022/10/24 07:07:05;;;;;;;5.20;3.20;;;;;;;;;;5024191;28;20422;-81
2022/10/24 07:09:32;;;;;;;9.98;4.07;;;;;;;;;;5024306;28;20427;-82
2022/10/24 07:11:59;;;;;;;7.43;3.88;;;;;;;;;;5020344;28;20431;-81
2022/10/24 07:14:27;;;;;;;7.70;4.00;;;;;;;;;;5024599;28;20423;-82
2022/10/24 07:16:53;;;;;;;8.27;4.15;;;;;;;;;;5021049;28;20430;-81
2022/10/24 07:19:19;;;;;;;11.32;4.10;;;;;;;;;;5022712;28;20419;-81
2022/10/24 07:21:46;;;;;;;11.50;4.07;;;;;;;;;;5024749;28;20435;-81
2022/10/24 07:24:13;;;;;;;6.27;3.60;;;;;;;;;;5025212;28;20434;-81
2022/10/24 07:26:39;;;;;;;9.18;3.80;;;;;;;;;;5022630;28;20434;-81
2022/10/24 07:29:06;;;;;;;6.30;3.60;;;;;;;;;;5021399;28;20415;-81
2022/10/24 07:31:35;;;;;;;12.53;3.73;;;;;;;;;;5024717;28;20420;-81
2022/10/24 07:34:02;;;;;;;8.70;3.17;;;;;;;;;;5021282;28;20435;-81
2022/10/24 07:36:30;;;;;;;9.65;3.80;;;;;;;;;;5021231;28;20453;-81
2022/10/24 07:38:57;;;;;;;7.53;3.10;;;;;;;;;;5025403;28;20441;-81
2022/10/24 07:41:26;;;;;;;13.80;3.60;;;;;;;;;;5023078;28;20411;-81
2022/10/24 07:43:53;;;;;;;6.78;3.03;;;;;;;;;;5020675;28;20436;-81
2022/10/24 07:46:22;;;;;;;8.00;3.60;;;;;;;;;;5017696;28;20420;-81
2022/10/24 07:48:51;;;;;;;7.50;3.60;;;;;;;;;;5022368;28;20846;-81
2022/10/24 07:51:18;;;;;;;9.10;2.80;;;;;;;;;;5021149;28;20436;-81
2022/10/24 07:53:44;;;;;;;9.23;3.20;;;;;;;;;;5020416;28;20425;-81
2022/10/24 07:56:13;;;;;;;8.40;3.42;;;;;;;;;;5024421;28;20946;-81
2022/10/24 07:58:40;;;;;;;5.90;2.88;;;;;;;;;;5022045;28;20542;-81
2022/10/24 08:01:07;;;;;;;7.85;3.15;;;;;;;;;;5026078;28;20419;-81
2022/10/24 08:03:34;;;;;;;6.90;2.65;;;;;;;;;;5024688;28;20462;-82
2022/10/24 08:06:04;;;;;;;10.85;3.22;;;;;;;;;;5021664;28;20421;-82
2022/10/24 08:08:30;;;;;;;5.28;2.85;;;;;;;;;;5020953;28;20428;-82
2022/10/24 08:10:56;;;;;;;4.75;2.50;;;;;;;;;;5021402;28;20426;-81
2022/10/24 08:13:24;;;;;;;10.38;3.20;;;;;;;;;;5024732;28;20436;-81
2022/10/24 08:15:51;;;;;;;6.93;3.03;;;;;;;;;;5024027;28;20411;-82
2022/10/24 08:18:17;;;;;;;6.10;2.40;;;;;;;;;;5023216;28;20421;-82
2022/10/24 08:20:44;;;;;;;7.30;2.40;;;;;;;;;;5019910;28;20431;-82
2022/10/24 08:23:11;;;;;;;6.05;2.92;;;;;;;;;;5023578;28;20426;-82
2022/10/24 08:25:39;;;;;;;6.80;2.45;;;;;;;;;;5024733;28;20427;-80
2022/10/24 08:28:05;;;;;;;7.18;2.97;;;;;;;;;;5022551;28;20459;-82
2022/10/24 08:30:32;;;;;;;7.05;2.83;;;;;;;;;;5022131;28;20419;-82
2022/10/24 08:32:58;;;;;;;7.63;2.67;;;;;;;;;;5022011;28;20419;-80
2022/10/24 08:35:25;;;;;;;7.22;3.17;;;;;;;;;;5023486;28;20413;-82
2022/10/24 08:37:51;;;;;;;6.68;2.65;;;;;;;;;;5022635;28;20428;-80
2022/10/24 08:40:20;;;;;;;6.83;2.73;;;;;;;;;;5022708;28;20906;-80
2022/10/24 08:42:46;;;;;;;8.27;2.40;;;;;;;;;;5023764;28;20411;-81
2022/10/24 08:45:24;;;;;;;8.20;3.00;;;;;;;;;;5023024;28;20939;-82
2022/10/24 08:47:53;;;;;;;7.50;2.60;;;;;;;;;;5021779;28;20937;-82
2022/10/24 08:50:23;;;;;;;6.05;2.40;;;;;;;;;;5022465;28;20414;-84
2022/10/24 08:52:51;;;;;;;8.85;2.33;;;;;;;;;;5020412;28;20420;-82
2022/10/24 08:55:21;;;;;;;6.35;2.20;;;;;;;;;;5021308;28;20458;-82
2022/10/24 08:57:49;;;;;;;6.97;2.40;;;;;;;;;;5021457;28;20415;-82
2022/10/24 09:00:17;;;;;;;9.07;2.63;;;;;;;;;;5021092;28;20440;-83
2022/10/24 09:02:44;;;;;;;5.70;2.60;;;;;;;;;;5019692;28;20472;-82
2022/10/24 09:05:22;;;;;;;8.20;2.20;;;;;;;;;;5023355;28;20423;-82
2022/10/24 09:07:51;;;;;;;6.32;2.70;;;;;;;;;;5020911;28;20418;-83
2022/10/24 09:10:19;;;;;;;8.60;2.53;;;;;;;;;;5021193;28;20783;-82
2022/10/24 09:12:45;;;;;;;9.30;2.42;;;;;;;;;;5027306;28;20859;-80
2022/10/24 09:15:14;;;;;;;5.63;2.47;;;;;;;;;;5021938;28;20416;-80
2022/10/24 09:17:42;;;;;;;8.60;2.40;;;;;;;;;;5022751;28;20442;-82
2022/10/24 09:20:24;;;;;;;5.55;2.20;;;;;;;;;;5019567;28;20840;-82
2022/10/24 09:22:52;;;;;;;7.53;2.25;;;;;;;;;;5022080;28;20480;-82
2022/10/24 09:25:21;;;;;;;6.00;2.17;;;;;;;;;;5022750;28;20407;-82
2022/10/24 09:27:47;;;;;;;6.83;2.40;;;;;;;;;;5025716;28;20431;-83
2022/10/24 09:30:16;;;;;;;8.52;2.40;;;;;;;;;;5023460;28;20942;-83
2022/10/24 09:32:43;;;;;;;7.40;2.20;;;;;;;;;;5022620;28;20435;-82
2022/10/24 09:35:12;;;;;;;9.95;2.28;;;;;;;;;;5021179;28;20423;-82
2022/10/24 09:37:40;;;;;;;8.23;2.65;;;;;;;;;;5023749;28;20419;-80
2022/10/24 09:40:13;;;;;;;5.03;2.08;;;;;;;;;;5021082;28;20441;-80
2022/10/24 09:42:47;;;;;;;7.10;1.93;;;;;;;;;;5019316;28;20439;-80
2022/10/24 09:45:27;;;;;;;8.65;2.88;;;;;;;;;;5017131;28;20429;-80
2022/10/24 09:47:55;;;;;;;8.00;2.40;;;;;;;;;;5023203;28;20451;-80
2022/10/24 09:50:22;;;;;;;8.15;2.33;;;;;;;;;;5018572;28;20896;-80
2022/10/24 09:52:49;;;;;;;5.45;2.40;;;;;;;;;;5020962;28;20777;-80
2022/10/24 09:55:17;;;;;;;6.15;2.10;;;;;;;;;;5020509;28;20407;-80
2022/10/24 09:57:45;;;;;;;5.63;2.00;;;;;;;;;;5018177;28;20445;-80
2022/10/24 10:00:20;;;;;;;5.38;2.10;;;;;;;;;;5020802;28;20425;-81
2022/10/24 10:02:56;;;;;;;4.80;2.20;;;;;;;;;;5022782;28;20769;-80
2022/10/24 10:05:22;;;;;;;4.80;2.35;;;;;;;;;;5023449;28;20408;-80
2022/10/24 10:07:50;;;;;;;6.78;2.15;;;;;;;;;;5020890;28;20431;-81
2022/10/24 10:10:36;;;;;;;8.82;2.30;;;;;;;;;;5022800;28;20430;-81
2022/10/24 10:13:10;;;;;;;7.50;2.08;;;;;;;;;;5021045;28;20438;-81
2022/10/24 10:15:38;;;;;;;7.00;2.22;;;;;;;;;;5022979;28;20456;-81
2022/10/24 10:18:07;;;;;;;9.82;2.60;;;;;;;;;;5026865;28;20426;-81
2022/10/24 10:20:38;;;;;;;6.55;2.00;;;;;;;;;;5023986;28;20415;-81
2022/10/24 10:23:15;;;;;;;11.17;2.40;;;;;;;;;;5024177;28;20483;-81
2022/10/24 10:25:42;;;;;;;8.13;2.00;;;;;;;;;;5025262;28;20424;-81
2022/10/24 10:28:18;;;;;;;7.30;2.03;;;;;;;;;;5024573;28;20431;-82
2022/10/24 10:30:48;;;;;;;7.75;1.80;;;;;;;;;;5022992;28;20806;-82
2022/10/24 10:33:18;;;;;;;7.57;2.20;;;;;;;;;;5025901;28;20415;-81
2022/10/24 10:35:48;;;;;;;8.55;2.20;;;;;;;;;;5025727;28;20790;-81
2022/10/24 10:38:35;;;;;;;6.88;1.90;;;;;;;;;;5022915;28;20404;-81
2022/10/24 10:41:03;;;;;;;7.68;2.58;;;;;;;;;;5025720;28;20440;-81
2022/10/24 10:43:35;;;;;;;6.88;2.00;;;;;;;;;;5027870;28;20426;-80
2022/10/24 10:46:07;;;;;;;7.57;2.17;;;;;;;;;;5024395;28;20415;-80
2022/10/24 10:48:39;;;;;;;11.40;2.30;;;;;;;;;;5024021;28;20428;-79
2022/10/24 10:51:11;;;;;;;7.70;2.10;;;;;;;;;;5025435;28;20427;-78
2022/10/24 10:53:40;;;;;;;8.32;2.15;;;;;;;;;;5026486;28;20419;-81
2022/10/24 10:56:12;;;;;;;6.10;2.10;;;;;;;;;;5021219;28;20427;-78
2022/10/24 10:58:42;;;;;;;5.75;2.00;;;;;;;;;;5023061;28;20440;-79
2022/10/24 11:01:12;;;;;;;7.05;2.17;;;;;;;;;;5023048;28;20408;-79
2022/10/24 11:03:41;;;;;;;8.77;2.10;;;;;;;;;;5026901;28;20418;-81
2022/10/24 11:06:13;;;;;;;7.00;2.00;;;;;;;;;;5025272;28;20430;-84
2022/10/24 11:08:46;;;;;;;6.40;2.10;;;;;;;;;;5024984;28;20912;-80
2022/10/24 11:11:15;;;;;;;6.97;1.80;;;;;;;;;;5020507;28;20423;-81
2022/10/24 11:13:47;;;;;;;4.68;1.80;;;;;;;;;;5024190;28;20942;-82
2022/10/24 11:16:16;;;;;;;4.50;1.80;;;;;;;;;;5025001;28;20419;-80
2022/10/24 11:18:45;;;;;;;5.60;1.98;;;;;;;;;;5025024;28;20450;-81
2022/10/24 11:21:12;;;;;;;11.75;2.00;;;;;;;;;;5022989;28;20434;-81
2022/10/24 11:23:42;;;;;;;4.68;2.28;;;;;;;;;;5023792;28;20899;-82
2022/10/24 11:26:10;;;;;;;6.43;2.15;;;;;;;;;;5019455;28;20432;-82
2022/10/24 11:28:39;;;;;;;9.77;2.45;;;;;;;;;;5020106;28;20446;-82
2022/10/24 11:31:10;;;;;;;3.97;1.90;;;;;;;;;;5020251;28;20415;-82
2022/10/24 11:33:41;;;;;;;7.00;2.30;;;;;;;;;;5024318;28;20411;-82
2022/10/24 11:36:11;;;;;;;7.90;2.00;;;;;;;;;;5022759;28;20426;-82
2022/10/24 11:38:42;;;;;;;6.75;2.10;;;;;;;;;;5019125;28;20938;-81
2022/10/24 11:41:33;;;;;;;8.60;2.33;;;;;;;;;;5024822;28;20440;-81
2022/10/24 11:44:02;;;;;;;7.38;2.40;;;;;;;;;;5024344;28;20411;-82
2022/10/24 11:46:32;;;;;;;9.73;2.75;;;;;;;;;;5024992;28;20435;-82
2022/10/24 11:49:00;;;;;;;7.72;2.13;;;;;;;;;;5024828;28;20579;-82
2022/10/24 11:51:31;;;;;;;7.55;1.90;;;;;;;;;;5023479;28;20441;-82
2022/10/24 11:53:58;;;;;;;6.93;2.00;;;;;;;;;;5024845;28;20424;-81
2022/10/24 11:56:29;;;;;;;7.90;2.00;;;;;;;;;;5020614;28;21004;-81
2022/10/24 11:58:59;;;;;;;6.88;2.10;;;;;;;;;;5023434;28;20415;-82
2022/10/24 12:01:51;;;;;;;6.65;2.05;;;;;;;;;;5024302;28;20422;-82
2022/10/24 12:04:24;;;;;;;4.80;1.40;;;;;;;;;;5021741;28;20411;-81
2022/10/24 12:06:59;;;;;;;7.78;1.90;;;;;;;;;;5022975;28;20429;-81
2022/10/24 12:09:36;;;;;;;7.30;1.83;;;;;;;;;;5022578;28;20421;-82
2022/10/24 12:12:09;;;;;;;3.40;1.60;;;;;;;;;;5021365;28;20424;-82
2022/10/24 12:14:53;;;;;;;14.75;2.38;;;;;;;;;;5022421;28;20433;-81
2022/10/24 12:17:40;;;;;;;8.27;1.70;;;;;;;;;;5021365;28;20421;-81
2022/10/24 12:20:11;;;;;;;5.30;1.40;;;;;;;;;;5022819;28;20419;-82
2022/10/24 12:22:40;;;;;;;7.00;1.73;;;;;;;;;;5023331;28;20419;-82
2022/10/24 12:25:08;;;;;;;7.38;1.70;;;;;;;;;;5022015;28;20419;-82
2022/10/24 12:27:36;;;;;;;5.47;1.60;;;;;;;;;;5019753;28;20416;-81
2022/10/24 12:30:04;;;;;;;5.80;1.45;;;;;;;;;;5020366;28;20474;-82
2022/10/24 12:32:37;;;;;;;5.72;1.60;;;;;;;;;;5023681;28;20934;-82
2022/10/24 12:35:04;;;;;;;9.40;2.00;;;;;;;;;;5021740;28;20434;-81
2022/10/24 12:37:33;;;;;;;5.30;1.42;;;;;;;;;;5020141;28;20414;-82
2022/10/24 12:40:00;;;;;;;7.70;1.95;;;;;;;;;;5019588;28;20417;-82
2022/10/24 12:42:45;;;;;;;6.88;1.65;;;;;;;;;;5023627;28;20422;-82
2022/10/24 12:45:28;;;;;;;10.87;1.90;;;;;;;;;;5021958;28;20438;-80
2022/10/24 12:48:11;;;;;;;6.80;1.60;;;;;;;;;;5023417;28;20412;-82
2022/10/24 12:51:02;;;;;;;7.43;1.60;;;;;;;;;;5017905;28;20420;-82
2022/10/24 12:53:34;;;;;;;6.55;1.88;;;;;;;;;;5019425;28;20417;-79
2022/10/24 12:56:06;;;;;;;4.63;1.60;;;;;;;;;;5021686;28;20419;-80
2022/10/24 12:58:34;;;;;;;6.70;1.70;;;;;;;;;;5022462;28;20454;-80
2022/10/24 13:01:02;;;;;;;9.02;1.73;;;;;;;;;;5022521;28;20774;-80
2022/10/24 13:03:35;;;;;;;6.57;1.80;;;;;;;;;;5022986;28;20501;-80
2022/10/24 13:06:07;;;;;;;6.60;1.40;;;;;;;;;;5019248;28;20425;-83
2022/10/24 13:08:45;;;;;;;6.85;1.88;;;;;;;;;;5042458;28;20480;-79
2022/10/24 13:11:22;;;;;;;8.15;1.75;;;;;;;;;;5039779;28;20417;-80
2022/10/24 13:13:57;;;;;;;6.47;1.50;;;;;;;;;;5042046;28;20417;-80
2022/10/24 13:16:27;;;;;;;4.75;1.45;;;;;;;;;;5040310;28;20410;-80
2022/10/24 13:19:00;;;;;;;7.37;1.50;;;;;;;;;;5041609;28;20427;-80
2022/10/24 13:21:27;;;;;;;8.88;1.75;;;;;;;;;;5041823;28;20947;-81
2022/10/24 13:24:09;;;;;;;5.38;1.60;;;;;;;;;;5039865;28;20413;-80
2022/10/24 13:26:39;;;;;;;4.95;1.23;;;;;;;;;;5041958;28;20426;-80
2022/10/24 13:29:06;;;;;;;8.40;1.70;;;;;;;;;;5039575;28;20422;-81
2022/10/24 13:31:41;;;;;;;6.30;1.80;;;;;;;;;;5040836;28;20432;-81
2022/10/24 13:34:14;;;;;;;6.00;1.67;;;;;;;;;;5041766;28;20848;-81
2022/10/24 13:36:41;;;;;;;6.38;1.75;;;;;;;;;;5039690;28;20438;-81
2022/10/24 13:39:12;;;;;;;4.60;1.52;;;;;;;;;;5040715;28;20421;-81
2022/10/24 13:41:40;;;;;;;6.88;1.70;;;;;;;;;;5039130;28;20432;-80
2022/10/24 13:44:10;;;;;;;4.82;1.50;;;;;;;;;;5042548;28;20415;-81
2022/10/24 13:46:40;;;;;;;4.37;1.30;;;;;;;;;;5039451;28;20425;-80
2022/10/24 13:49:08;;;;;;;5.30;1.50;;;;;;;;;;5040939;28;20929;-80
2022/10/24 13:51:37;;;;;;;6.30;1.77;;;;;;;;;;5040157;28;20433;-80
2022/10/24 13:54:06;;;;;;;7.72;1.70;;;;;;;;;;5043169;28;20417;-80
2022/10/24 13:56:36;;;;;;;6.18;1.60;;;;;;;;;;5045132;28;20414;-81
2022/10/24 13:59:03;;;;;;;6.10;1.50;;;;;;;;;;5043385;28;20428;-80
2022/10/24 14:01:30;;;;;;;4.75;1.67;;;;;;;;;;5045334;28;20419;-80
2022/10/24 14:03:57;;;;;;;7.75;1.65;;;;;;;;;;5048219;28;20486;-82
2022/10/24 14:06:24;;;;;;;3.28;1.48;;;;;;;;;;5042547;28;20423;-83
2022/10/24 14:08:51;;;;;;;5.68;1.40;;;;;;;;;;5045536;28;20419;-82
2022/10/24 14:11:20;;;;;;;5.35;1.67;;;;;;;;;;5046020;28;20421;-82
2022/10/24 14:13:49;;;;;;;5.53;1.45;;;;;;;;;;5044930;28;20430;-81
2022/10/24 14:16:15;;;;;;;7.30;1.80;;;;;;;;;;5041697;28;20920;-82
2022/10/24 14:18:42;;;;;;;6.88;1.60;;;;;;;;;;5046976;28;20451;-82
2022/10/24 14:21:16;;;;;;;5.83;1.60;;;;;;;;;;5044628;28;20437;-81
2022/10/24 14:23:42;;;;;;;7.68;1.65;;;;;;;;;;5044400;28;20437;-82
2022/10/24 14:26:14;;;;;;;6.20;1.40;;;;;;;;;;5041324;28;20420;-82
2022/10/24 14:28:44;;;;;;;3.88;1.52;;;;;;;;;;5047123;28;20420;-82
2022/10/24 14:31:19;;;;;;;8.07;1.83;;;;;;;;;;5043691;28;20847;-82
2022/10/24 14:33:49;;;;;;;8.02;1.50;;;;;;;;;;5042744;28;20441;-82
2022/10/24 14:36:16;;;;;;;6.18;1.85;;;;;;;;;;5044531;28;20933;-83
2022/10/24 14:38:43;;;;;;;5.70;1.90;;;;;;;;;;5043529;28;20551;-82
2022/10/24 14:41:10;;;;;;;6.90;1.90;;;;;;;;;;5043651;28;20774;-81
2022/10/24 14:43:40;;;;;;;4.30;1.30;;;;;;;;;;5044904;28;21387;-82
2022/10/24 14:46:24;;;;;;;5.88;1.70;;;;;;;;;;5046140;28;20511;-82
2022/10/24 14:48:51;;;;;;;7.20;1.65;;;;;;;;;;5044576;28;20472;-81
2022/10/24 14:51:21;;;;;;;3.22;1.73;;;;;;;;;;5044863;28;20917;-83